sensor_id;sensor_type;location;lat;lon;timestamp;pressure;altitude;pressure_sealevel;temperature
68012;BMP180;54794;48.348;7.878;2024-02-21T00:00:53;100174.00;;;8.00
68012;BMP180;54794;48.348;7.878;2024-02-21T00:03:20;100169.00;;;7.70
68012;BMP180;54794;48.348;7.878;2024-02-21T00:05:47;100164.00;;;7.90
68012;BMP180;54794;48.348;7.878;2024-02-21T00:08:14;100168.00;;;7.90
68012;BMP180;54794;48.348;7.878;2024-02-21T00:10:41;100166.00;;;7.90
68012;BMP180;54794;48.348;7.878;2024-02-21T00:13:09;100162.00;;;7.80
68012;BMP180;54794;48.348;7.878;2024-02-21T00:15:38;100169.00;;;7.60
68012;BMP180;54794;48.348;7.878;2024-02-21T00:18:05;100164.00;;;7.50
68012;BMP180;54794;48.348;7.878;2024-02-21T00:20:32;100170.00;;;7.70
68012;BMP180;54794;48.348;7.878;2024-02-21T00:23:01;100155.00;;;7.80
68012;BMP180;54794;48.348;7.878;2024-02-21T00:25:28;100155.00;;;7.70
68012;BMP180;54794;48.348;7.878;2024-02-21T00:27:56;100147.00;;;7.70
68012;BMP180;54794;48.348;7.878;2024-02-21T00:30:23;100144.00;;;7.80
68012;BMP180;54794;48.348;7.878;2024-02-21T00:32:52;100133.00;;;7.80
68012;BMP180;54794;48.348;7.878;2024-02-21T00:35:19;100135.00;;;7.80
68012;BMP180;54794;48.348;7.878;2024-02-21T00:37:46;100140.00;;;7.90
68012;BMP180;54794;48.348;7.878;2024-02-21T00:40:13;100136.00;;;7.80
68012;BMP180;54794;48.348;7.878;2024-02-21T00:42:47;100129.00;;;7.80
68012;BMP180;54794;48.348;7.878;2024-02-21T00:45:15;100131.00;;;7.80
68012;BMP180;54794;48.348;7.878;2024-02-21T00:47:43;100119.00;;;7.70
68012;BMP180;54794;48.348;7.878;2024-02-21T00:50:10;100106.00;;;7.80
68012;BMP180;54794;48.348;7.878;2024-02-21T00:52:42;100109.00;;;7.80
68012;BMP180;54794;48.348;7.878;2024-02-21T00:55:10;100103.00;;;7.90
68012;BMP180;54794;48.348;7.878;2024-02-21T00:57:37;100097.00;;;7.80
68012;BMP180;54794;48.348;7.878;2024-02-21T01:00:05;100100.00;;;7.70
68012;BMP180;54794;48.348;7.878;2024-02-21T01:02:32;100098.00;;;7.80
68012;BMP180;54794;48.348;7.878;2024-02-21T01:04:59;100097.00;;;7.70
68012;BMP180;54794;48.348;7.878;2024-02-21T01:07:26;100096.00;;;7.70
68012;BMP180;54794;48.348;7.878;2024-02-21T01:09:53;100092.00;;;7.80
68012;BMP180;54794;48.348;7.878;2024-02-21T01:12:20;100079.00;;;7.80
68012;BMP180;54794;48.348;7.878;2024-02-21T01:14:47;100074.00;;;7.80
68012;BMP180;54794;48.348;7.878;2024-02-21T01:17:16;100076.00;;;7.90
68012;BMP180;54794;48.348;7.878;2024-02-21T01:19:43;100074.00;;;7.80
68012;BMP180;54794;48.348;7.878;2024-02-21T01:22:13;100084.00;;;7.90
68012;BMP180;54794;48.348;7.878;2024-02-21T01:24:42;100078.00;;;7.70
68012;BMP180;54794;48.348;7.878;2024-02-21T01:27:09;100065.00;;;7.70
68012;BMP180;54794;48.348;7.878;2024-02-21T01:29:36;100056.00;;;7.90
68012;BMP180;54794;48.348;7.878;2024-02-21T01:32:04;100052.00;;;7.80
68012;BMP180;54794;48.348;7.878;2024-02-21T01:34:31;100046.00;;;7.80
68012;BMP180;54794;48.348;7.878;2024-02-21T01:36:59;100033.00;;;7.70
68012;BMP180;54794;48.348;7.878;2024-02-21T01:39:31;100036.00;;;7.60
68012;BMP180;54794;48.348;7.878;2024-02-21T01:41:58;100038.00;;;7.70
68012;BMP180;54794;48.348;7.878;2024-02-21T01:44:25;100023.00;;;7.80
68012;BMP180;54794;48.348;7.878;2024-02-21T01:46:53;100019.00;;;7.80
68012;BMP180;54794;48.348;7.878;2024-02-21T01:49:20;100017.00;;;7.80
68012;BMP180;54794;48.348;7.878;2024-02-21T01:51:48;100018.00;;;7.60
68012;BMP180;54794;48.348;7.878;2024-02-21T01:54:17;100023.00;;;7.70
68012;BMP180;54794;48.348;7.878;2024-02-21T01:56:47;100023.00;;;7.80
68012;BMP180;54794;48.348;7.878;2024-02-21T01:59:16;100016.00;;;7.40
68012;BMP180;54794;48.348;7.878;2024-02-21T02:01:46;100015.00;;;7.30
68012;BMP180;54794;48.348;7.878;2024-02-21T02:04:14;100010.00;;;7.20
68012;BMP180;54794;48.348;7.878;2024-02-21T02:06:41;100015.00;;;6.90
68012;BMP180;54794;48.348;7.878;2024-02-21T02:09:11;100017.00;;;7.30
68012;BMP180;54794;48.348;7.878;2024-02-21T02:11:39;100011.00;;;7.00
68012;BMP180;54794;48.348;7.878;2024-02-21T02:14:06;100010.00;;;7.00
68012;BMP180;54794;48.348;7.878;2024-02-21T02:16:33;100010.00;;;7.00
68012;BMP180;54794;48.348;7.878;2024-02-21T02:19:00;100015.00;;;7.10
68012;BMP180;54794;48.348;7.878;2024-02-21T02:21:36;100008.00;;;7.10
68012;BMP180;54794;48.348;7.878;2024-02-21T02:24:05;100000.00;;;7.20
68012;BMP180;54794;48.348;7.878;2024-02-21T02:26:32;99993.00;;;7.20
68012;BMP180;54794;48.348;7.878;2024-02-21T02:29:02;99990.00;;;7.20
68012;BMP180;54794;48.348;7.878;2024-02-21T02:31:29;99994.00;;;7.10
68012;BMP180;54794;48.348;7.878;2024-02-21T02:33:56;100003.00;;;7.10
68012;BMP180;54794;48.348;7.878;2024-02-21T02:36:23;99984.00;;;7.20
68012;BMP180;54794;48.348;7.878;2024-02-21T02:38:53;99976.00;;;7.20
68012;BMP180;54794;48.348;7.878;2024-02-21T02:41:22;99977.00;;;7.10
68012;BMP180;54794;48.348;7.878;2024-02-21T02:43:49;99973.00;;;6.80
68012;BMP180;54794;48.348;7.878;2024-02-21T02:46:18;99968.00;;;6.80
68012;BMP180;54794;48.348;7.878;2024-02-21T02:48:45;99968.00;;;6.70
68012;BMP180;54794;48.348;7.878;2024-02-21T02:51:12;99967.00;;;6.80
68012;BMP180;54794;48.348;7.878;2024-02-21T02:53:39;99974.00;;;6.70
68012;BMP180;54794;48.348;7.878;2024-02-21T02:56:05;99962.00;;;7.10
68012;BMP180;54794;48.348;7.878;2024-02-21T02:58:33;99949.00;;;7.20
68012;BMP180;54794;48.348;7.878;2024-02-21T03:01:01;99950.00;;;7.30
68012;BMP180;54794;48.348;7.878;2024-02-21T03:03:29;99940.00;;;7.30
68012;BMP180;54794;48.348;7.878;2024-02-21T03:05:56;99938.00;;;7.40
68012;BMP180;54794;48.348;7.878;2024-02-21T03:08:23;99921.00;;;7.30
68012;BMP180;54794;48.348;7.878;2024-02-21T03:10:50;99935.00;;;7.30
68012;BMP180;54794;48.348;7.878;2024-02-21T03:13:20;99934.00;;;7.20
68012;BMP180;54794;48.348;7.878;2024-02-21T03:15:47;99921.00;;;7.10
68012;BMP180;54794;48.348;7.878;2024-02-21T03:18:14;99907.00;;;7.10
68012;BMP180;54794;48.348;7.878;2024-02-21T03:20:41;99892.00;;;7.30
68012;BMP180;54794;48.348;7.878;2024-02-21T03:23:08;99897.00;;;7.10
68012;BMP180;54794;48.348;7.878;2024-02-21T03:25:35;99894.00;;;7.20
68012;BMP180;54794;48.348;7.878;2024-02-21T03:28:02;99899.00;;;7.20
68012;BMP180;54794;48.348;7.878;2024-02-21T03:30:30;99887.00;;;7.30
68012;BMP180;54794;48.348;7.878;2024-02-21T03:32:57;99883.00;;;7.20
68012;BMP180;54794;48.348;7.878;2024-02-21T03:35:24;99885.00;;;7.20
68012;BMP180;54794;48.348;7.878;2024-02-21T03:37:53;99878.00;;;7.00
68012;BMP180;54794;48.348;7.878;2024-02-21T03:40:22;99865.00;;;7.20
68012;BMP180;54794;48.348;7.878;2024-02-21T03:42:49;99871.00;;;7.30
68012;BMP180;54794;48.348;7.878;2024-02-21T03:45:16;99865.00;;;7.30
68012;BMP180;54794;48.348;7.878;2024-02-21T03:47:43;99861.00;;;7.10
68012;BMP180;54794;48.348;7.878;2024-02-21T03:50:10;99863.00;;;7.20
68012;BMP180;54794;48.348;7.878;2024-02-21T03:52:40;99867.00;;;7.10
68012;BMP180;54794;48.348;7.878;2024-02-21T03:55:07;99869.00;;;7.10
68012;BMP180;54794;48.348;7.878;2024-02-21T03:57:35;99870.00;;;6.70
68012;BMP180;54794;48.348;7.878;2024-02-21T04:00:02;99868.00;;;6.90
68012;BMP180;54794;48.348;7.878;2024-02-21T04:02:30;99869.00;;;6.70
68012;BMP180;54794;48.348;7.878;2024-02-21T04:04:57;99866.00;;;6.70
68012;BMP180;54794;48.348;7.878;2024-02-21T04:07:24;99868.00;;;6.40
68012;BMP180;54794;48.348;7.878;2024-02-21T04:09:51;99865.00;;;6.70
68012;BMP180;54794;48.348;7.878;2024-02-21T04:12:18;99864.00;;;6.60
68012;BMP180;54794;48.348;7.878;2024-02-21T04:14:45;99857.00;;;6.60
68012;BMP180;54794;48.348;7.878;2024-02-21T04:17:15;99858.00;;;6.50
68012;BMP180;54794;48.348;7.878;2024-02-21T04:19:42;99850.00;;;6.60
68012;BMP180;54794;48.348;7.878;2024-02-21T04:22:09;99853.00;;;6.50
68012;BMP180;54794;48.348;7.878;2024-02-21T04:24:36;99861.00;;;6.30
68012;BMP180;54794;48.348;7.878;2024-02-21T04:27:04;99867.00;;;6.40
68012;BMP180;54794;48.348;7.878;2024-02-21T04:29:30;99883.00;;;6.40
68012;BMP180;54794;48.348;7.878;2024-02-21T04:31:58;99873.00;;;6.40
68012;BMP180;54794;48.348;7.878;2024-02-21T04:34:25;99872.00;;;6.30
68012;BMP180;54794;48.348;7.878;2024-02-21T04:36:52;99857.00;;;6.60
68012;BMP180;54794;48.348;7.878;2024-02-21T04:39:19;99846.00;;;6.60
68012;BMP180;54794;48.348;7.878;2024-02-21T04:41:48;99859.00;;;6.40
68012;BMP180;54794;48.348;7.878;2024-02-21T04:44:15;99850.00;;;6.20
68012;BMP180;54794;48.348;7.878;2024-02-21T04:46:43;99858.00;;;6.40
68012;BMP180;54794;48.348;7.878;2024-02-21T04:49:10;99845.00;;;6.40
68012;BMP180;54794;48.348;7.878;2024-02-21T04:51:37;99844.00;;;6.60
68012;BMP180;54794;48.348;7.878;2024-02-21T04:54:07;99838.00;;;6.30
68012;BMP180;54794;48.348;7.878;2024-02-21T04:56:34;99839.00;;;6.40
68012;BMP180;54794;48.348;7.878;2024-02-21T04:59:01;99834.00;;;6.40
68012;BMP180;54794;48.348;7.878;2024-02-21T05:01:28;99829.00;;;6.10
68012;BMP180;54794;48.348;7.878;2024-02-21T05:03:56;99820.00;;;6.40
68012;BMP180;54794;48.348;7.878;2024-02-21T05:06:23;99824.00;;;6.60
68012;BMP180;54794;48.348;7.878;2024-02-21T05:08:50;99843.00;;;6.30
68012;BMP180;54794;48.348;7.878;2024-02-21T05:11:17;99830.00;;;6.50
68012;BMP180;54794;48.348;7.878;2024-02-21T05:13:44;99831.00;;;6.30
68012;BMP180;54794;48.348;7.878;2024-02-21T05:16:12;99823.00;;;6.30
68012;BMP180;54794;48.348;7.878;2024-02-21T05:18:40;99831.00;;;6.30
68012;BMP180;54794;48.348;7.878;2024-02-21T05:21:09;99819.00;;;6.50
68012;BMP180;54794;48.348;7.878;2024-02-21T05:23:36;99823.00;;;6.20
68012;BMP180;54794;48.348;7.878;2024-02-21T05:26:07;99811.00;;;6.20
68012;BMP180;54794;48.348;7.878;2024-02-21T05:28:35;99809.00;;;6.20
68012;BMP180;54794;48.348;7.878;2024-02-21T05:31:05;99808.00;;;6.10
68012;BMP180;54794;48.348;7.878;2024-02-21T05:33:35;99804.00;;;6.00
68012;BMP180;54794;48.348;7.878;2024-02-21T05:36:05;99796.00;;;6.00
68012;BMP180;54794;48.348;7.878;2024-02-21T05:38:33;99799.00;;;6.20
68012;BMP180;54794;48.348;7.878;2024-02-21T05:41:01;99802.00;;;6.30
68012;BMP180;54794;48.348;7.878;2024-02-21T05:43:28;99797.00;;;6.40
68012;BMP180;54794;48.348;7.878;2024-02-21T05:45:55;99801.00;;;6.40
68012;BMP180;54794;48.348;7.878;2024-02-21T05:48:25;99803.00;;;6.40
68012;BMP180;54794;48.348;7.878;2024-02-21T05:50:56;99805.00;;;6.50
68012;BMP180;54794;48.348;7.878;2024-02-21T05:53:23;99796.00;;;6.50
68012;BMP180;54794;48.348;7.878;2024-02-21T05:55:50;99795.00;;;6.50
68012;BMP180;54794;48.348;7.878;2024-02-21T05:58:17;99795.00;;;6.50
68012;BMP180;54794;48.348;7.878;2024-02-21T06:00:44;99788.00;;;6.50
68012;BMP180;54794;48.348;7.878;2024-02-21T06:03:12;99792.00;;;6.60
68012;BMP180;54794;48.348;7.878;2024-02-21T06:05:40;99789.00;;;6.70
68012;BMP180;54794;48.348;7.878;2024-02-21T06:08:12;99791.00;;;6.70
68012;BMP180;54794;48.348;7.878;2024-02-21T06:10:39;99789.00;;;6.60
68012;BMP180;54794;48.348;7.878;2024-02-21T06:13:06;99777.00;;;6.50
68012;BMP180;54794;48.348;7.878;2024-02-21T06:15:36;99783.00;;;6.40
68012;BMP180;54794;48.348;7.878;2024-02-21T06:18:03;99771.00;;;6.70
68012;BMP180;54794;48.348;7.878;2024-02-21T06:20:34;99761.00;;;6.70
68012;BMP180;54794;48.348;7.878;2024-02-21T06:23:03;99768.00;;;6.60
68012;BMP180;54794;48.348;7.878;2024-02-21T06:25:30;99762.00;;;6.60
68012;BMP180;54794;48.348;7.878;2024-02-21T06:28:00;99763.00;;;6.70
68012;BMP180;54794;48.348;7.878;2024-02-21T06:30:27;99758.00;;;6.60
68012;BMP180;54794;48.348;7.878;2024-02-21T06:32:54;99751.00;;;6.70
68012;BMP180;54794;48.348;7.878;2024-02-21T06:35:31;99759.00;;;6.70
68012;BMP180;54794;48.348;7.878;2024-02-21T06:37:58;99757.00;;;6.60
68012;BMP180;54794;48.348;7.878;2024-02-21T06:40:34;99759.00;;;6.70
68012;BMP180;54794;48.348;7.878;2024-02-21T06:43:36;99756.00;;;6.60
68012;BMP180;54794;48.348;7.878;2024-02-21T06:49:40;99759.00;;;6.50
68012;BMP180;54794;48.348;7.878;2024-02-21T06:52:54;99737.00;;;6.60
68012;BMP180;54794;48.348;7.878;2024-02-21T06:55:23;99729.00;;;6.70
68012;BMP180;54794;48.348;7.878;2024-02-21T06:57:53;99733.00;;;6.80
68012;BMP180;54794;48.348;7.878;2024-02-21T07:00:21;99722.00;;;6.80
68012;BMP180;54794;48.348;7.878;2024-02-21T07:02:51;99730.00;;;6.60
68012;BMP180;54794;48.348;7.878;2024-02-21T07:05:18;99728.00;;;6.70
68012;BMP180;54794;48.348;7.878;2024-02-21T07:07:48;99733.00;;;6.70
68012;BMP180;54794;48.348;7.878;2024-02-21T07:10:23;99736.00;;;6.80
68012;BMP180;54794;48.348;7.878;2024-02-21T07:12:55;99736.00;;;6.70
68012;BMP180;54794;48.348;7.878;2024-02-21T07:15:34;99739.00;;;6.70
68012;BMP180;54794;48.348;7.878;2024-02-21T07:18:08;99745.00;;;6.40
68012;BMP180;54794;48.348;7.878;2024-02-21T07:20:37;99751.00;;;6.40
68012;BMP180;54794;48.348;7.878;2024-02-21T07:23:04;99755.00;;;6.30
68012;BMP180;54794;48.348;7.878;2024-02-21T07:25:31;99744.00;;;6.30
68012;BMP180;54794;48.348;7.878;2024-02-21T07:27:58;99746.00;;;6.50
68012;BMP180;54794;48.348;7.878;2024-02-21T07:30:25;99752.00;;;6.70
68012;BMP180;54794;48.348;7.878;2024-02-21T07:32:52;99743.00;;;6.70
68012;BMP180;54794;48.348;7.878;2024-02-21T07:35:21;99736.00;;;6.70
68012;BMP180;54794;48.348;7.878;2024-02-21T07:37:50;99735.00;;;6.80
68012;BMP180;54794;48.348;7.878;2024-02-21T07:40:17;99723.00;;;6.80
68012;BMP180;54794;48.348;7.878;2024-02-21T07:42:44;99723.00;;;6.90
68012;BMP180;54794;48.348;7.878;2024-02-21T07:45:17;99744.00;;;6.90
68012;BMP180;54794;48.348;7.878;2024-02-21T07:47:45;99725.00;;;7.00
68012;BMP180;54794;48.348;7.878;2024-02-21T07:50:12;99732.00;;;7.00
68012;BMP180;54794;48.348;7.878;2024-02-21T07:52:41;99744.00;;;7.00
68012;BMP180;54794;48.348;7.878;2024-02-21T07:55:09;99730.00;;;7.10
68012;BMP180;54794;48.348;7.878;2024-02-21T07:57:37;99725.00;;;7.20
68012;BMP180;54794;48.348;7.878;2024-02-21T08:00:07;99724.00;;;7.40
68012;BMP180;54794;48.348;7.878;2024-02-21T08:02:36;99725.00;;;7.50
68012;BMP180;54794;48.348;7.878;2024-02-21T08:05:04;99718.00;;;7.50
68012;BMP180;54794;48.348;7.878;2024-02-21T08:07:32;99712.00;;;7.60
68012;BMP180;54794;48.348;7.878;2024-02-21T08:09:59;99727.00;;;7.50
68012;BMP180;54794;48.348;7.878;2024-02-21T08:12:26;99710.00;;;7.50
68012;BMP180;54794;48.348;7.878;2024-02-21T08:14:56;99709.00;;;7.50
68012;BMP180;54794;48.348;7.878;2024-02-21T08:17:24;99701.00;;;7.50
68012;BMP180;54794;48.348;7.878;2024-02-21T08:19:54;99693.00;;;7.60
68012;BMP180;54794;48.348;7.878;2024-02-21T08:22:21;99690.00;;;7.50
68012;BMP180;54794;48.348;7.878;2024-02-21T08:24:51;99682.00;;;7.40
68012;BMP180;54794;48.348;7.878;2024-02-21T08:27:22;99679.00;;;7.60
68012;BMP180;54794;48.348;7.878;2024-02-21T08:29:51;99677.00;;;7.80
68012;BMP180;54794;48.348;7.878;2024-02-21T08:32:18;99670.00;;;7.70
68012;BMP180;54794;48.348;7.878;2024-02-21T08:34:47;99662.00;;;7.80
68012;BMP180;54794;48.348;7.878;2024-02-21T08:37:14;99671.00;;;7.90
68012;BMP180;54794;48.348;7.878;2024-02-21T08:39:41;99658.00;;;8.10
68012;BMP180;54794;48.348;7.878;2024-02-21T08:42:09;99665.00;;;8.10
68012;BMP180;54794;48.348;7.878;2024-02-21T08:44:40;99656.00;;;8.20
68012;BMP180;54794;48.348;7.878;2024-02-21T08:47:13;99651.00;;;8.40
68012;BMP180;54794;48.348;7.878;2024-02-21T08:49:42;99652.00;;;8.50
68012;BMP180;54794;48.348;7.878;2024-02-21T08:52:09;99648.00;;;8.50
68012;BMP180;54794;48.348;7.878;2024-02-21T08:54:36;99643.00;;;8.40
68012;BMP180;54794;48.348;7.878;2024-02-21T08:57:05;99646.00;;;8.50
68012;BMP180;54794;48.348;7.878;2024-02-21T08:59:33;99647.00;;;8.60
68012;BMP180;54794;48.348;7.878;2024-02-21T09:02:02;99646.00;;;8.80
68012;BMP180;54794;48.348;7.878;2024-02-21T09:04:30;99634.00;;;8.80
68012;BMP180;54794;48.348;7.878;2024-02-21T09:07:00;99633.00;;;8.80
68012;BMP180;54794;48.348;7.878;2024-02-21T09:09:50;99635.00;;;8.70
68012;BMP180;54794;48.348;7.878;2024-02-21T09:12:25;99634.00;;;8.90
68012;BMP180;54794;48.348;7.878;2024-02-21T09:14:56;99638.00;;;9.00
68012;BMP180;54794;48.348;7.878;2024-02-21T09:17:23;99625.00;;;9.00
68012;BMP180;54794;48.348;7.878;2024-02-21T09:19:56;99620.00;;;9.20
68012;BMP180;54794;48.348;7.878;2024-02-21T09:22:30;99631.00;;;9.30
68012;BMP180;54794;48.348;7.878;2024-02-21T09:25:04;99632.00;;;9.50
68012;BMP180;54794;48.348;7.878;2024-02-21T09:27:47;99619.00;;;9.80
68012;BMP180;54794;48.348;7.878;2024-02-21T09:30:26;99618.00;;;9.80
68012;BMP180;54794;48.348;7.878;2024-02-21T09:32:55;99617.00;;;10.00
68012;BMP180;54794;48.348;7.878;2024-02-21T09:35:28;99602.00;;;10.10
68012;BMP180;54794;48.348;7.878;2024-02-21T09:38:03;99588.00;;;10.30
68012;BMP180;54794;48.348;7.878;2024-02-21T09:40:43;99581.00;;;10.30
68012;BMP180;54794;48.348;7.878;2024-02-21T09:43:20;99574.00;;;10.30
68012;BMP180;54794;48.348;7.878;2024-02-21T09:46:06;99579.00;;;10.40
68012;BMP180;54794;48.348;7.878;2024-02-21T09:49:33;99580.00;;;10.50
68012;BMP180;54794;48.348;7.878;2024-02-21T09:52:08;99579.00;;;10.30
68012;BMP180;54794;48.348;7.878;2024-02-21T09:54:42;99572.00;;;10.50
68012;BMP180;54794;48.348;7.878;2024-02-21T09:57:22;99571.00;;;10.50
68012;BMP180;54794;48.348;7.878;2024-02-21T10:00:06;99557.00;;;10.60
68012;BMP180;54794;48.348;7.878;2024-02-21T10:02:35;99567.00;;;10.50
68012;BMP180;54794;48.348;7.878;2024-02-21T10:05:08;99554.00;;;10.60
68012;BMP180;54794;48.348;7.878;2024-02-21T10:07:41;99544.00;;;10.50
68012;BMP180;54794;48.348;7.878;2024-02-21T10:10:27;99532.00;;;10.80
68012;BMP180;54794;48.348;7.878;2024-02-21T10:13:04;99530.00;;;10.80
68012;BMP180;54794;48.348;7.878;2024-02-21T10:15:34;99527.00;;;10.90
68012;BMP180;54794;48.348;7.878;2024-02-21T10:18:04;99535.00;;;11.00
68012;BMP180;54794;48.348;7.878;2024-02-21T10:20:39;99530.00;;;11.10
68012;BMP180;54794;48.348;7.878;2024-02-21T10:23:21;99529.00;;;11.10
68012;BMP180;54794;48.348;7.878;2024-02-21T10:25:53;99522.00;;;11.20
68012;BMP180;54794;48.348;7.878;2024-02-21T10:28:20;99515.00;;;11.20
68012;BMP180;54794;48.348;7.878;2024-02-21T10:30:54;99509.00;;;11.30
68012;BMP180;54794;48.348;7.878;2024-02-21T10:33:26;99500.00;;;11.60
68012;BMP180;54794;48.348;7.878;2024-02-21T10:36:09;99495.00;;;11.30
68012;BMP180;54794;48.348;7.878;2024-02-21T10:38:40;99484.00;;;11.50
68012;BMP180;54794;48.348;7.878;2024-02-21T10:41:14;99483.00;;;11.30
68012;BMP180;54794;48.348;7.878;2024-02-21T10:43:52;99479.00;;;11.50
68012;BMP180;54794;48.348;7.878;2024-02-21T10:46:24;99494.00;;;11.50
68012;BMP180;54794;48.348;7.878;2024-02-21T10:49:10;99475.00;;;11.60
68012;BMP180;54794;48.348;7.878;2024-02-21T10:51:45;99476.00;;;11.80
68012;BMP180;54794;48.348;7.878;2024-02-21T10:54:45;99471.00;;;11.70
68012;BMP180;54794;48.348;7.878;2024-02-21T10:57:18;99475.00;;;11.80
68012;BMP180;54794;48.348;7.878;2024-02-21T10:59:59;99465.00;;;11.90
68012;BMP180;54794;48.348;7.878;2024-02-21T11:02:32;99456.00;;;11.80
68012;BMP180;54794;48.348;7.878;2024-02-21T11:05:06;99450.00;;;11.90
68012;BMP180;54794;48.348;7.878;2024-02-21T11:08:13;99450.00;;;12.20
68012;BMP180;54794;48.348;7.878;2024-02-21T11:10:51;99436.00;;;11.90
68012;BMP180;54794;48.348;7.878;2024-02-21T11:13:40;99436.00;;;12.10
68012;BMP180;54794;48.348;7.878;2024-02-21T11:16:23;99428.00;;;12.10
68012;BMP180;54794;48.348;7.878;2024-02-21T11:19:26;99434.00;;;12.00
68012;BMP180;54794;48.348;7.878;2024-02-21T11:22:22;99423.00;;;12.00
68012;BMP180;54794;48.348;7.878;2024-02-21T11:25:11;99410.00;;;12.30
68012;BMP180;54794;48.348;7.878;2024-02-21T11:30:30;99389.00;;;12.40
68012;BMP180;54794;48.348;7.878;2024-02-21T11:33:06;99388.00;;;12.50
68012;BMP180;54794;48.348;7.878;2024-02-21T11:35:34;99376.00;;;12.40
68012;BMP180;54794;48.348;7.878;2024-02-21T11:38:47;99386.00;;;12.40
68012;BMP180;54794;48.348;7.878;2024-02-21T11:42:12;99377.00;;;12.70
68012;BMP180;54794;48.348;7.878;2024-02-21T11:45:02;99366.00;;;12.60
68012;BMP180;54794;48.348;7.878;2024-02-21T11:47:36;99356.00;;;12.60
68012;BMP180;54794;48.348;7.878;2024-02-21T11:50:10;99354.00;;;12.70
68012;BMP180;54794;48.348;7.878;2024-02-21T11:52:59;99350.00;;;12.70
68012;BMP180;54794;48.348;7.878;2024-02-21T11:55:29;99341.00;;;12.70
68012;BMP180;54794;48.348;7.878;2024-02-21T11:57:57;99349.00;;;12.90
68012;BMP180;54794;48.348;7.878;2024-02-21T12:00:25;99334.00;;;12.60
68012;BMP180;54794;48.348;7.878;2024-02-21T12:02:55;99325.00;;;12.80
68012;BMP180;54794;48.348;7.878;2024-02-21T12:05:31;99313.00;;;13.00
68012;BMP180;54794;48.348;7.878;2024-02-21T12:08:01;99306.00;;;13.00
68012;BMP180;54794;48.348;7.878;2024-02-21T12:10:28;99294.00;;;13.10
68012;BMP180;54794;48.348;7.878;2024-02-21T12:13:15;99305.00;;;13.20
68012;BMP180;54794;48.348;7.878;2024-02-21T12:15:47;99300.00;;;12.90
68012;BMP180;54794;48.348;7.878;2024-02-21T12:18:17;99291.00;;;13.20
68012;BMP180;54794;48.348;7.878;2024-02-21T12:20:48;99279.00;;;13.30
68012;BMP180;54794;48.348;7.878;2024-02-21T12:23:18;99271.00;;;13.40
68012;BMP180;54794;48.348;7.878;2024-02-21T12:25:46;99276.00;;;13.20
68012;BMP180;54794;48.348;7.878;2024-02-21T12:28:20;99275.00;;;13.00
68012;BMP180;54794;48.348;7.878;2024-02-21T12:30:54;99277.00;;;13.00
68012;BMP180;54794;48.348;7.878;2024-02-21T12:33:24;99271.00;;;12.80
68012;BMP180;54794;48.348;7.878;2024-02-21T12:35:51;99268.00;;;12.80
68012;BMP180;54794;48.348;7.878;2024-02-21T12:38:21;99260.00;;;13.00
68012;BMP180;54794;48.348;7.878;2024-02-21T12:40:48;99261.00;;;12.90
68012;BMP180;54794;48.348;7.878;2024-02-21T12:43:15;99244.00;;;13.00
68012;BMP180;54794;48.348;7.878;2024-02-21T12:45:45;99234.00;;;13.00
68012;BMP180;54794;48.348;7.878;2024-02-21T12:48:12;99225.00;;;13.00
68012;BMP180;54794;48.348;7.878;2024-02-21T12:50:49;99220.00;;;12.90
68012;BMP180;54794;48.348;7.878;2024-02-21T12:53:21;99212.00;;;13.00
68012;BMP180;54794;48.348;7.878;2024-02-21T12:56:00;99213.00;;;13.20
68012;BMP180;54794;48.348;7.878;2024-02-21T12:58:27;99212.00;;;13.20
68012;BMP180;54794;48.348;7.878;2024-02-21T13:00:55;99205.00;;;13.10
68012;BMP180;54794;48.348;7.878;2024-02-21T13:03:25;99200.00;;;13.00
68012;BMP180;54794;48.348;7.878;2024-02-21T13:05:54;99199.00;;;13.30
68012;BMP180;54794;48.348;7.878;2024-02-21T13:08:21;99193.00;;;13.20
68012;BMP180;54794;48.348;7.878;2024-02-21T13:10:49;99192.00;;;13.40
68012;BMP180;54794;48.348;7.878;2024-02-21T13:13:19;99189.00;;;13.50
68012;BMP180;54794;48.348;7.878;2024-02-21T13:15:48;99194.00;;;13.40
68012;BMP180;54794;48.348;7.878;2024-02-21T13:18:18;99182.00;;;13.30
68012;BMP180;54794;48.348;7.878;2024-02-21T13:20:45;99167.00;;;13.20
68012;BMP180;54794;48.348;7.878;2024-02-21T13:23:12;99161.00;;;13.40
68012;BMP180;54794;48.348;7.878;2024-02-21T13:25:39;99154.00;;;13.10
68012;BMP180;54794;48.348;7.878;2024-02-21T13:28:09;99148.00;;;13.20
68012;BMP180;54794;48.348;7.878;2024-02-21T13:30:39;99138.00;;;13.30
68012;BMP180;54794;48.348;7.878;2024-02-21T13:33:07;99131.00;;;13.50
68012;BMP180;54794;48.348;7.878;2024-02-21T13:35:34;99122.00;;;13.50
68012;BMP180;54794;48.348;7.878;2024-02-21T13:38:05;99126.00;;;13.20
68012;BMP180;54794;48.348;7.878;2024-02-21T13:40:36;99118.00;;;13.30
68012;BMP180;54794;48.348;7.878;2024-02-21T13:43:03;99135.00;;;13.30
68012;BMP180;54794;48.348;7.878;2024-02-21T13:45:30;99134.00;;;13.20
68012;BMP180;54794;48.348;7.878;2024-02-21T13:48:00;99137.00;;;13.30
68012;BMP180;54794;48.348;7.878;2024-02-21T13:50:30;99120.00;;;13.30
68012;BMP180;54794;48.348;7.878;2024-02-21T13:53:08;99095.00;;;13.50
68012;BMP180;54794;48.348;7.878;2024-02-21T13:55:41;99059.00;;;13.60
68012;BMP180;54794;48.348;7.878;2024-02-21T13:58:11;99071.00;;;13.60
68012;BMP180;54794;48.348;7.878;2024-02-21T14:00:40;99065.00;;;13.60
68012;BMP180;54794;48.348;7.878;2024-02-21T14:03:09;99072.00;;;13.60
68012;BMP180;54794;48.348;7.878;2024-02-21T14:05:39;99075.00;;;13.60
68012;BMP180;54794;48.348;7.878;2024-02-21T14:08:14;99072.00;;;13.50
68012;BMP180;54794;48.348;7.878;2024-02-21T14:10:45;99072.00;;;13.20
68012;BMP180;54794;48.348;7.878;2024-02-21T14:13:15;99063.00;;;13.40
68012;BMP180;54794;48.348;7.878;2024-02-21T14:15:54;99057.00;;;13.50
68012;BMP180;54794;48.348;7.878;2024-02-21T14:18:21;99033.00;;;13.50
68012;BMP180;54794;48.348;7.878;2024-02-21T14:20:48;99036.00;;;13.40
68012;BMP180;54794;48.348;7.878;2024-02-21T14:23:20;99028.00;;;13.40
68012;BMP180;54794;48.348;7.878;2024-02-21T14:25:48;99025.00;;;13.40
68012;BMP180;54794;48.348;7.878;2024-02-21T14:28:17;99027.00;;;13.20
68012;BMP180;54794;48.348;7.878;2024-02-21T14:30:52;99019.00;;;13.30
68012;BMP180;54794;48.348;7.878;2024-02-21T14:33:24;99017.00;;;13.20
68012;BMP180;54794;48.348;7.878;2024-02-21T14:35:56;99011.00;;;13.30
68012;BMP180;54794;48.348;7.878;2024-02-21T14:38:29;99003.00;;;13.30
68012;BMP180;54794;48.348;7.878;2024-02-21T14:41:02;98992.00;;;13.30